createdAt,value
2023-02-19T07:16:19.116Z,2.00
2023-02-19T07:19:23.335Z,5.60
2023-02-19T07:22:25.178Z,4.05
2023-02-19T07:25:26.875Z,4.05
2023-02-19T07:28:28.520Z,3.97
2023-02-19T07:31:30.306Z,2.78
2023-02-19T07:34:32.243Z,5.70
2023-02-19T07:37:33.901Z,3.47
2023-02-19T07:40:36.621Z,6.07
2023-02-19T07:43:38.485Z,4.72
2023-02-19T07:46:40.112Z,4.65
2023-02-19T07:49:41.745Z,5.00
2023-02-19T07:52:43.391Z,6.28
2023-02-19T07:55:45.288Z,3.08
2023-02-19T07:58:46.994Z,2.25
2023-02-19T08:02:07.246Z,5.07
2023-02-19T08:05:09.232Z,2.90
2023-02-19T08:08:14.559Z,6.25
2023-02-19T08:11:34.962Z,3.50
2023-02-19T08:14:36.727Z,4.22
2023-02-19T08:17:38.733Z,2.67
2023-02-19T08:20:40.796Z,5.10
2023-02-19T08:23:42.660Z,7.07
2023-02-19T08:26:44.351Z,8.57
2023-02-19T08:29:45.993Z,8.63
2023-02-19T08:32:47.658Z,2.25
2023-02-19T08:35:49.482Z,2.28
2023-02-19T08:38:51.111Z,8.43
2023-02-19T08:41:52.744Z,2.65
2023-02-19T08:44:54.465Z,3.10
2023-02-19T08:47:56.101Z,4.68
2023-02-19T08:50:59.268Z,5.25
2023-02-19T08:54:03.384Z,6.80
2023-02-19T08:57:05.319Z,6.78
2023-02-19T09:00:07.494Z,7.10
2023-02-19T09:03:09.666Z,5.10
2023-02-19T09:06:17.299Z,7.53
2023-02-19T09:09:18.950Z,4.35
2023-02-19T09:12:20.817Z,3.72
2023-02-19T09:15:22.520Z,4.53
2023-02-19T09:18:24.978Z,2.92
2023-02-19T09:21:26.634Z,5.88
2023-02-19T09:24:28.595Z,4.43
2023-02-19T09:27:32.214Z,5.15
2023-02-19T09:30:33.925Z,3.28
2023-02-19T09:33:35.790Z,3.50
2023-02-19T09:36:38.250Z,4.05
2023-02-19T09:39:39.875Z,5.32
2023-02-19T09:42:42.508Z,3.50
2023-02-19T09:45:44.483Z,6.43
2023-02-19T09:48:46.130Z,3.72
2023-02-19T09:51:50.739Z,2.75
2023-02-19T09:54:57.524Z,3.30
2023-02-19T09:57:59.608Z,3.10
2023-02-19T10:01:02.362Z,1.70
2023-02-19T10:04:04.448Z,2.22
2023-02-19T10:07:08.320Z,5.60
2023-02-19T10:10:26.720Z,2.92
2023-02-19T10:13:34.516Z,5.93
2023-02-19T10:16:40.407Z,2.85
2023-02-19T10:19:42.078Z,3.25
2023-02-19T10:22:43.796Z,2.40
2023-02-19T10:25:57.182Z,3.70
2023-02-19T10:28:58.823Z,1.20
2023-02-19T10:32:29.792Z,1.48
2023-02-19T10:35:34.876Z,2.78
2023-02-19T10:38:40.390Z,3.17
2023-02-19T10:41:44.154Z,2.97
2023-02-19T10:44:51.783Z,2.38
2023-02-19T10:47:53.426Z,1.73
2023-02-19T10:50:58.192Z,1.85
2023-02-19T10:54:28.456Z,3.35
2023-02-19T10:57:32.622Z,2.58
2023-02-19T11:00:34.473Z,5.95
2023-02-19T11:03:36.387Z,3.22
2023-02-19T11:06:38.047Z,3.90
2023-02-19T11:09:40.601Z,2.70
2023-02-19T11:12:42.277Z,2.20
2023-02-19T11:15:44.119Z,1.35
2023-02-19T11:18:45.884Z,2.85
2023-02-19T11:21:47.536Z,2.78
2023-02-19T11:24:50.375Z,4.95
2023-02-19T11:28:06.843Z,3.15
2023-02-19T11:31:26.944Z,3.55
2023-02-19T11:34:30.064Z,2.72
2023-02-19T11:37:31.758Z,2.15
2023-02-19T11:40:55.541Z,5.25
2023-02-19T11:44:25.681Z,5.22
2023-02-19T11:47:42.434Z,1.35
2023-02-19T11:51:03.370Z,3.58
2023-02-19T11:54:09.121Z,1.50
2023-02-19T11:57:33.260Z,3.20
2023-02-19T12:00:40.969Z,1.38
2023-02-19T12:04:16.087Z,0.95
2023-02-19T12:07:23.041Z,3.75
2023-02-19T12:10:42.668Z,1.60
2023-02-19T12:13:55.976Z,4.40
2023-02-19T12:17:30.155Z,1.88
2023-02-19T12:20:34.615Z,4.15
2023-02-19T12:24:01.231Z,0.60
2023-02-19T12:27:09.948Z,3.38
2023-02-19T12:30:49.080Z,1.13
2023-02-19T12:34:24.700Z,1.42
2023-02-19T12:38:04.765Z,1.25
2023-02-19T12:41:23.213Z,1.00
2023-02-19T12:44:38.146Z,2.72
2023-02-19T12:47:40.740Z,2.70
2023-02-19T12:50:42.439Z,2.67
2023-02-19T12:53:52.192Z,3.05
2023-02-19T12:57:09.083Z,0.85
2023-02-19T13:00:42.715Z,1.40
2023-02-19T13:03:53.672Z,3.55
2023-02-19T13:07:17.190Z,3.88
2023-02-19T13:10:37.659Z,2.08
2023-02-19T13:14:00.476Z,1.35
2023-02-19T13:17:19.946Z,2.83
2023-02-19T13:20:37.259Z,2.58
2023-02-19T13:23:58.695Z,1.67
2023-02-19T13:33:34.660Z,1.02
2023-02-19T13:36:36.320Z,1.15
2023-02-19T13:39:38.017Z,1.27
2023-02-19T13:42:39.652Z,0.88
2023-02-19T13:45:48.632Z,1.80
2023-02-19T13:48:50.584Z,2.35
2023-02-19T13:51:59.243Z,4.05
2023-02-19T13:55:56.947Z,1.63
2023-02-19T14:02:01.243Z,1.30
2023-02-19T14:05:05.691Z,1.20
2023-02-19T14:08:08.208Z,1.15
2023-02-19T14:11:14.121Z,3.45
2023-02-19T14:14:31.960Z,2.97
2023-02-19T14:17:40.302Z,4.10
2023-02-19T14:20:45.034Z,1.48
2023-02-19T14:23:52.320Z,4.65
2023-02-19T14:26:53.959Z,2.78
2023-02-19T14:29:55.656Z,2.17
2023-02-19T14:33:09.759Z,3.45
2023-02-19T14:36:32.492Z,2.08
2023-02-19T14:39:36.353Z,2.38
2023-02-19T14:42:38.057Z,3.53
2023-02-19T14:45:48.569Z,1.55
2023-02-19T14:48:50.294Z,2.28
2023-02-19T14:51:59.295Z,1.85
2023-02-19T14:55:02.088Z,1.90
2023-02-19T14:58:10.832Z,2.70
2023-02-19T15:01:28.196Z,4.78
2023-02-19T15:04:34.992Z,3.42
2023-02-19T15:07:36.669Z,2.38
2023-02-19T15:10:38.454Z,2.35
2023-02-19T15:13:45.471Z,1.85
2023-02-19T15:16:47.149Z,3.65
2023-02-19T15:19:48.828Z,4.85
2023-02-19T15:22:50.485Z,1.73
2023-02-19T15:25:52.480Z,2.80
2023-02-19T15:28:59.191Z,2.38
2023-02-19T15:32:00.995Z,2.53
2023-02-19T15:35:04.245Z,5.93
2023-02-19T15:38:06.389Z,3.92
2023-02-19T15:41:13.532Z,2.47
2023-02-19T15:44:32.613Z,4.60
2023-02-19T15:47:39.813Z,3.63
2023-02-19T15:50:46.382Z,3.10
2023-02-19T15:53:50.970Z,2.88
2023-02-19T15:56:52.631Z,3.40
2023-02-19T16:00:13.136Z,4.60
2023-02-19T16:03:22.582Z,2.83
2023-02-19T16:06:26.714Z,2.78
2023-02-19T16:09:39.488Z,2.53
2023-02-19T16:12:41.140Z,2.67
2023-02-19T16:15:45.695Z,2.25
2023-02-19T16:18:48.824Z,3.03
2023-02-19T16:21:51.179Z,2.95
2023-02-19T16:24:57.160Z,3.55
2023-02-19T16:27:59.112Z,3.60
2023-02-19T16:31:09.199Z,3.95
2023-02-19T16:34:49.140Z,2.40
2023-02-19T16:37:58.097Z,2.20
2023-02-19T16:44:32.297Z,2.10
2023-02-19T16:47:36.478Z,2.15
2023-02-19T16:50:41.284Z,2.90
2023-02-19T16:53:42.965Z,1.80
2023-02-19T16:56:44.641Z,2.30
2023-02-19T16:59:47.100Z,4.72
2023-02-19T17:02:50.142Z,4.88
2023-02-19T17:08:53.637Z,2.00
2023-02-19T17:11:55.313Z,2.92
2023-02-19T17:14:57.026Z,3.65
2023-02-19T17:17:58.652Z,2.92
2023-02-19T17:21:18.036Z,2.53
2023-02-19T17:24:19.927Z,2.22
2023-02-19T17:27:21.583Z,2.17
2023-02-19T17:30:27.634Z,3.42
2023-02-19T17:33:29.425Z,3.17
2023-02-19T17:36:31.768Z,3.85
2023-02-19T17:39:33.413Z,6.20
2023-02-19T17:42:37.743Z,2.97
2023-02-19T17:45:39.586Z,2.67
2023-02-19T17:48:41.338Z,2.15
2023-02-19T17:51:42.999Z,3.20
2023-02-19T17:54:47.580Z,1.70
2023-02-19T17:57:51.668Z,4.22
2023-02-19T18:00:56.058Z,2.90
2023-02-19T18:03:58.088Z,3.33
2023-02-19T18:07:02.810Z,4.10
2023-02-19T18:10:05.355Z,5.85
2023-02-19T18:13:06.988Z,4.32
2023-02-19T18:16:09.930Z,4.32
2023-02-19T18:19:11.873Z,3.47
2023-02-19T18:22:18.051Z,3.83
2023-02-19T18:25:20.182Z,9.85
2023-02-19T18:28:21.838Z,3.42
2023-02-19T18:31:23.672Z,4.07
2023-02-19T18:34:26.804Z,4.97
2023-02-19T18:37:30.970Z,4.82
2023-02-19T18:40:32.658Z,16.55
2023-02-19T18:43:34.289Z,4.90
2023-02-19T18:46:35.949Z,7.18
2023-02-19T18:49:37.697Z,6.57
2023-02-19T18:52:39.365Z,4.55
2023-02-19T18:55:41.245Z,5.97
2023-02-19T18:58:42.913Z,8.13
2023-02-19T19:01:45.027Z,8.27
2023-02-19T19:04:51.192Z,7.97
2023-02-19T19:07:54.057Z,7.75
2023-02-19T19:10:55.719Z,6.72
2023-02-19T19:13:57.651Z,8.18
2023-02-19T19:17:00.189Z,6.22
2023-02-19T19:20:01.891Z,8.38
2023-02-19T19:23:05.939Z,8.00
2023-02-19T19:26:07.764Z,7.22
2023-02-19T19:29:09.515Z,9.52
2023-02-19T19:32:11.519Z,7.35
2023-02-19T19:35:16.332Z,6.93
2023-02-19T19:38:17.948Z,6.07
2023-02-19T19:41:19.811Z,5.43
2023-02-19T19:44:23.013Z,10.27
2023-02-19T19:47:24.659Z,17.85
2023-02-19T19:50:26.395Z,10.68
2023-02-19T19:53:28.059Z,16.85
2023-02-19T19:56:30.276Z,6.10
2023-02-19T19:59:32.078Z,8.45
2023-02-19T20:02:33.751Z,7.22
2023-02-19T20:05:35.673Z,12.10
2023-02-19T20:08:37.312Z,9.18
2023-02-19T20:11:49.665Z,5.20
2023-02-19T20:14:51.424Z,6.00
2023-02-19T20:17:53.121Z,10.07
2023-02-19T20:20:54.751Z,9.50
2023-02-19T20:23:56.610Z,7.22
2023-02-19T20:27:01.954Z,8.02
2023-02-19T20:30:04.506Z,11.32
2023-02-19T20:33:09.412Z,5.75
2023-02-19T20:36:13.804Z,6.45
2023-02-19T20:39:19.451Z,9.75
2023-02-19T20:42:21.256Z,10.13
2023-02-19T20:45:25.580Z,8.77
2023-02-19T20:48:30.404Z,8.43
2023-02-19T20:52:02.919Z,5.97
2023-02-19T20:55:05.147Z,4.75
2023-02-19T20:58:09.746Z,6.93
2023-02-19T21:01:12.031Z,7.68
2023-02-19T21:04:14.157Z,6.22
2023-02-19T21:07:15.879Z,4.53
2023-02-19T21:10:17.690Z,4.10
2023-02-19T21:13:22.024Z,7.63
2023-02-19T21:16:26.076Z,7.60
2023-02-19T21:19:29.819Z,6.35
2023-02-19T21:22:31.452Z,9.05
2023-02-19T21:25:33.328Z,8.02
2023-02-19T21:28:34.970Z,6.15
2023-02-19T21:31:47.378Z,8.65
2023-02-19T21:34:50.726Z,4.95
2023-02-19T21:37:55.281Z,10.02
2023-02-19T21:40:59.417Z,7.43
2023-02-19T21:44:03.478Z,6.97
2023-02-19T21:47:05.191Z,3.22
2023-02-19T21:50:07.459Z,8.48
2023-02-19T21:53:09.200Z,5.03
2023-02-19T21:56:11.160Z,4.93
2023-02-19T21:59:13.056Z,7.15
2023-02-19T22:02:15.001Z,8.85
2023-02-19T22:05:16.888Z,7.03
2023-02-19T22:08:18.765Z,5.47
